createdAt,value
2019-06-01T00:01:12.339Z,2.83
2019-06-01T00:03:40.299Z,2.50
2019-06-01T00:06:08.294Z,2.87
2019-06-01T00:08:36.178Z,2.40
2019-06-01T00:11:03.940Z,2.40
2019-06-01T00:13:31.854Z,3.13
2019-06-01T00:15:59.795Z,3.17
2019-06-01T00:18:27.790Z,2.90
2019-06-01T00:20:55.878Z,2.90
2019-06-01T00:23:23.791Z,2.80
2019-06-01T00:25:52.900Z,2.70
2019-06-01T00:28:21.022Z,2.67
2019-06-01T00:30:49.887Z,2.30
2019-06-01T00:33:18.016Z,2.33
2019-06-01T00:35:45.946Z,2.37
2019-06-01T00:38:13.642Z,2.03
2019-06-01T00:40:41.751Z,2.20
2019-06-01T00:43:09.712Z,2.23
2019-06-01T00:45:37.639Z,2.00
2019-06-01T00:48:05.498Z,1.83
2019-06-01T00:50:33.423Z,2.17
2019-06-01T00:53:01.676Z,2.40
2019-06-01T00:55:29.625Z,2.10
2019-06-01T00:57:57.521Z,2.50
2019-06-01T01:00:25.557Z,2.27
2019-06-01T01:02:54.391Z,2.07
2019-06-01T01:05:22.662Z,2.10
2019-06-01T01:07:51.516Z,2.37
2019-06-01T01:10:20.100Z,2.10
2019-06-01T01:13:12.819Z,2.20
2019-06-01T01:15:40.913Z,1.83
2019-06-01T01:18:08.790Z,2.33
2019-06-01T01:20:36.831Z,2.40
2019-06-01T01:23:04.725Z,2.37
2019-06-01T01:25:32.730Z,2.17
2019-06-01T01:28:00.835Z,2.13
2019-06-01T01:30:29.100Z,2.40
2019-06-01T01:32:58.776Z,2.50
2019-06-01T01:35:27.244Z,2.53
2019-06-01T01:37:55.997Z,2.43
2019-06-01T01:40:23.883Z,2.20
2019-06-01T01:42:52.353Z,2.33
2019-06-01T01:45:20.758Z,2.50
2019-06-01T01:47:49.418Z,1.93
2019-06-01T01:50:17.770Z,2.40
2019-06-01T01:52:45.802Z,2.20
2019-06-01T01:55:13.640Z,2.10
2019-06-01T01:57:41.569Z,2.10
2019-06-01T02:00:10.094Z,2.00
2019-06-01T02:02:37.955Z,2.50
2019-06-01T02:05:05.797Z,2.30
2019-06-01T02:07:33.831Z,2.30
2019-06-01T02:10:02.026Z,2.23
2019-06-01T02:12:30.078Z,2.20
2019-06-01T02:14:57.998Z,2.50
2019-06-01T02:17:25.971Z,2.50
2019-06-01T02:19:54.134Z,3.07
2019-06-01T02:22:22.130Z,3.10
2019-06-01T02:24:50.080Z,2.70
2019-06-01T02:27:18.087Z,2.70
2019-06-01T02:29:46.034Z,2.90
2019-06-01T02:32:14.027Z,2.50
2019-06-01T02:34:42.095Z,2.40
2019-06-01T02:37:10.022Z,2.27
2019-06-01T02:39:38.317Z,2.37
2019-06-01T02:42:07.652Z,2.30
2019-06-01T02:44:35.591Z,2.40
2019-06-01T02:47:04.124Z,2.00
2019-06-01T02:49:33.487Z,2.17
2019-06-01T02:52:01.456Z,2.27
2019-06-01T02:54:29.403Z,2.50
2019-06-01T02:56:57.886Z,2.60
2019-06-01T02:59:25.769Z,2.30
2019-06-01T03:01:58.146Z,2.50
2019-06-01T03:04:24.062Z,2.47
2019-06-01T03:06:51.997Z,2.70
2019-06-01T03:09:21.010Z,2.50
2019-06-01T03:11:49.509Z,2.40
2019-06-01T03:14:18.362Z,2.90
2019-06-01T03:16:47.649Z,3.30
2019-06-01T03:19:15.856Z,3.37
2019-06-01T03:21:46.651Z,3.23
2019-06-01T03:24:14.552Z,3.67
2019-06-01T03:26:44.645Z,3.50
2019-06-01T03:29:13.544Z,4.17
2019-06-01T03:31:41.620Z,3.63
2019-06-01T03:34:11.462Z,4.00
2019-06-01T03:36:39.294Z,4.30
2019-06-01T03:39:08.231Z,3.77
2019-06-01T03:41:36.307Z,3.70
2019-06-01T03:44:04.508Z,3.37
2019-06-01T03:46:32.642Z,3.30
2019-06-01T03:49:01.460Z,3.00
2019-06-01T03:51:29.402Z,3.10
2019-06-01T03:53:57.223Z,3.17
2019-06-01T03:56:25.259Z,2.77
2019-06-01T03:58:53.251Z,3.00
2019-06-01T04:01:21.233Z,2.60
2019-06-01T04:03:49.139Z,2.87
2019-06-01T04:06:17.231Z,3.40
2019-06-01T04:08:45.138Z,3.23
2019-06-01T04:11:13.039Z,3.20
2019-06-01T04:13:40.989Z,3.20
2019-06-01T04:16:10.028Z,3.63
2019-06-01T04:18:38.077Z,4.07
2019-06-01T04:21:06.068Z,4.43
2019-06-01T04:23:36.352Z,3.87
2019-06-01T04:26:04.167Z,4.07
2019-06-01T04:28:32.150Z,4.63
2019-06-01T04:31:00.025Z,5.10
2019-06-01T04:33:28.024Z,6.00
2019-06-01T04:35:56.003Z,6.50
2019-06-01T04:38:23.970Z,5.87
2019-06-01T04:40:51.846Z,6.53
2019-06-01T04:43:19.796Z,6.00
2019-06-01T04:45:47.619Z,5.00
2019-06-01T04:48:15.725Z,6.10
2019-06-01T04:50:43.788Z,5.40
2019-06-01T04:53:13.294Z,6.13
2019-06-01T04:55:41.309Z,6.07
2019-06-01T04:58:09.306Z,6.80
2019-06-01T05:00:37.274Z,6.67
2019-06-01T05:03:07.192Z,6.63
2019-06-01T05:05:34.864Z,7.03
2019-06-01T05:08:02.553Z,7.43
2019-06-01T05:10:30.523Z,6.70
2019-06-01T05:12:58.340Z,6.30
2019-06-01T05:15:26.195Z,6.27
2019-06-01T05:17:54.253Z,6.17
2019-06-01T05:20:22.240Z,5.87
2019-06-01T05:22:50.111Z,6.00
2019-06-01T05:25:18.212Z,5.47
2019-06-01T05:27:46.035Z,5.77
2019-06-01T05:30:14.128Z,5.80
2019-06-01T05:32:42.028Z,4.83
2019-06-01T05:35:10.355Z,5.73
2019-06-01T05:37:38.225Z,6.93
2019-06-01T05:40:06.543Z,9.67
2019-06-01T05:42:34.372Z,6.00
2019-06-01T05:45:02.241Z,5.60
2019-06-01T05:47:30.170Z,6.77
2019-06-01T05:49:58.092Z,6.13
2019-06-01T05:52:26.197Z,6.70
2019-06-01T05:54:54.162Z,6.00
2019-06-01T05:57:23.260Z,5.53
2019-06-01T05:59:51.300Z,5.00
2019-06-01T06:02:19.576Z,4.20
2019-06-01T06:04:47.739Z,4.30
2019-06-01T06:07:16.818Z,4.80
2019-06-01T06:09:45.844Z,4.63
2019-06-01T06:12:13.608Z,5.87
2019-06-01T06:14:41.588Z,5.00
2019-06-01T06:17:12.871Z,5.77
2019-06-01T06:19:39.970Z,4.10
2019-06-01T06:22:07.822Z,5.07
2019-06-01T06:24:35.826Z,5.27
2019-06-01T06:27:03.758Z,5.40
2019-06-01T06:29:31.629Z,7.03
2019-06-01T06:31:59.529Z,5.00
2019-06-01T06:34:27.516Z,4.37
2019-06-01T06:36:55.649Z,5.00
2019-06-01T06:39:24.230Z,5.30
2019-06-01T06:41:52.181Z,4.83
2019-06-01T06:44:20.619Z,5.13
2019-06-01T06:46:48.749Z,4.50
2019-06-01T06:49:17.065Z,4.70
2019-06-01T06:51:44.991Z,4.70
2019-06-01T06:54:14.628Z,4.30
2019-06-01T06:56:42.664Z,4.20
2019-06-01T06:59:11.809Z,4.47
2019-06-01T07:01:39.970Z,4.60
2019-06-01T07:04:12.551Z,3.77
2019-06-01T07:06:37.701Z,3.57
2019-06-01T07:09:05.610Z,3.90
2019-06-01T07:11:33.425Z,4.67
2019-06-01T07:14:01.310Z,4.33
2019-06-01T07:16:29.188Z,3.90
2019-06-01T07:18:57.031Z,3.80
2019-06-01T07:21:25.874Z,3.83
2019-06-01T07:23:53.818Z,4.37
2019-06-01T07:26:21.948Z,4.53
2019-06-01T07:28:49.928Z,4.33
2019-06-01T07:31:17.925Z,4.90
2019-06-01T07:33:45.756Z,4.13
2019-06-01T07:36:13.532Z,4.23
2019-06-01T07:38:41.425Z,4.80
2019-06-01T07:41:09.244Z,4.23
2019-06-01T07:43:37.119Z,3.77
2019-06-01T07:46:04.925Z,4.63
2019-06-01T07:48:33.425Z,4.80
2019-06-01T07:51:01.243Z,3.83
2019-06-01T07:53:29.549Z,3.60
2019-06-01T07:55:57.332Z,3.80
2019-06-01T07:58:24.950Z,4.67
2019-06-01T08:00:52.679Z,4.00
2019-06-01T08:03:22.412Z,4.13
2019-06-01T08:05:49.892Z,4.03
2019-06-01T08:08:17.615Z,4.77
2019-06-01T08:10:45.259Z,3.63
2019-06-01T08:13:12.890Z,3.77
2019-06-01T08:15:40.798Z,3.83
2019-06-01T08:18:08.397Z,3.90
2019-06-01T08:20:36.238Z,3.87
2019-06-01T08:23:04.250Z,3.73
2019-06-01T08:25:32.797Z,3.77
2019-06-01T08:28:00.757Z,3.80
2019-06-01T08:30:28.679Z,3.60
2019-06-01T08:32:56.616Z,4.97
2019-06-01T08:35:24.908Z,5.07
2019-06-01T08:37:52.947Z,3.63
2019-06-01T08:40:20.813Z,3.73
2019-06-01T08:42:48.678Z,3.70
2019-06-01T08:45:16.583Z,3.53
2019-06-01T08:47:44.402Z,3.77
2019-06-01T08:50:12.783Z,3.33
2019-06-01T08:52:40.702Z,3.57
2019-06-01T08:55:08.719Z,3.50
2019-06-01T08:57:36.731Z,3.00
2019-06-01T09:00:05.463Z,2.60
2019-06-01T09:02:34.837Z,4.00
2019-06-01T09:05:03.574Z,3.23
2019-06-01T09:07:33.202Z,3.27
2019-06-01T09:10:01.043Z,2.80
2019-06-01T09:12:29.261Z,3.10
2019-06-01T09:14:57.529Z,3.70
2019-06-01T09:17:25.454Z,3.00
2019-06-01T09:19:53.352Z,3.97
2019-06-01T09:22:21.639Z,3.40
2019-06-01T09:24:53.085Z,3.20
2019-06-01T09:27:19.165Z,3.27
2019-06-01T09:29:47.191Z,2.63
2019-06-01T09:32:15.106Z,4.67
2019-06-01T09:34:43.021Z,2.90
2019-06-01T09:37:10.937Z,3.10
2019-06-01T09:39:38.957Z,2.87
2019-06-01T09:42:06.991Z,3.53
2019-06-01T09:44:35.208Z,2.90
2019-06-01T09:47:03.335Z,3.33
2019-06-01T09:49:32.654Z,3.67
2019-06-01T09:52:01.199Z,3.70
2019-06-01T09:54:30.681Z,3.23
2019-06-01T09:56:58.901Z,3.03
2019-06-01T09:59:27.746Z,3.30
2019-06-01T10:01:57.021Z,3.33
2019-06-01T10:04:24.884Z,3.30
2019-06-01T10:06:52.859Z,3.00
2019-06-01T10:09:20.814Z,4.00
2019-06-01T10:11:48.755Z,3.37
2019-06-01T10:14:16.674Z,4.03
2019-06-01T10:16:44.707Z,4.63
2019-06-01T10:19:12.460Z,3.63
2019-06-01T10:21:40.391Z,3.07
2019-06-01T10:24:08.307Z,4.17
2019-06-01T10:26:37.519Z,3.00
2019-06-01T10:29:05.678Z,4.60
2019-06-01T10:31:34.676Z,4.17
2019-06-01T10:34:02.800Z,3.60
2019-06-01T10:36:31.891Z,3.70
2019-06-01T10:38:59.879Z,3.23
2019-06-01T10:41:27.668Z,3.17
2019-06-01T10:43:55.594Z,3.30
2019-06-01T10:46:23.493Z,3.07
2019-06-01T10:48:51.375Z,4.10
2019-06-01T10:51:19.402Z,4.77
2019-06-01T10:53:47.291Z,3.50
2019-06-01T10:56:15.150Z,3.07
2019-06-01T10:58:58.581Z,3.57
2019-06-01T11:01:12.850Z,3.83
2019-06-01T11:03:41.027Z,2.93
2019-06-01T11:06:08.921Z,3.00
2019-06-01T11:08:37.174Z,3.23
2019-06-01T11:11:05.261Z,3.50
2019-06-01T11:13:33.144Z,3.00
2019-06-01T11:16:00.954Z,3.40
2019-06-01T11:18:28.942Z,2.83
2019-06-01T11:20:56.830Z,2.90
2019-06-01T11:23:24.774Z,3.23
2019-06-01T11:25:52.945Z,2.47
2019-06-01T11:28:20.950Z,2.63
2019-06-01T11:30:48.881Z,3.13
2019-06-01T11:33:16.857Z,2.87
2019-06-01T11:35:45.467Z,2.70
2019-06-01T11:38:13.382Z,2.60
2019-06-01T11:40:42.721Z,3.33
2019-06-01T11:43:11.989Z,2.73
2019-06-01T11:45:40.776Z,2.50
2019-06-01T11:48:08.989Z,3.00
2019-06-01T11:50:37.050Z,2.37
2019-06-01T11:53:04.987Z,2.33
2019-06-01T11:55:32.887Z,2.43
2019-06-01T11:58:00.873Z,2.50
2019-06-01T12:00:28.994Z,2.77
2019-06-01T12:02:56.977Z,3.00
2019-06-01T12:05:25.283Z,3.30
2019-06-01T12:07:53.201Z,2.47
2019-06-01T12:10:21.074Z,2.30
2019-06-01T12:12:48.973Z,2.30
2019-06-01T12:15:16.898Z,2.40
2019-06-01T12:17:44.963Z,2.20
2019-06-01T12:20:13.084Z,2.40
2019-06-01T12:22:41.016Z,2.17
2019-06-01T12:25:09.105Z,3.27
2019-06-01T12:27:37.333Z,3.23
2019-06-01T12:30:05.624Z,2.50
2019-06-01T12:32:33.503Z,2.30
2019-06-01T12:35:03.391Z,2.30
2019-06-01T12:37:45.454Z,1.90
2019-06-01T12:40:00.796Z,1.70
2019-06-01T12:42:28.703Z,1.60
2019-06-01T12:44:56.629Z,1.40
2019-06-01T12:47:24.440Z,1.90
2019-06-01T12:49:52.744Z,1.60
2019-06-01T12:52:20.854Z,1.20
2019-06-01T12:54:49.006Z,1.23
2019-06-01T12:57:17.323Z,1.57
2019-06-01T12:59:45.474Z,1.50
2019-06-01T13:02:13.554Z,2.00
2019-06-01T13:04:42.833Z,1.47
2019-06-01T13:07:10.696Z,1.70
2019-06-01T13:09:57.804Z,2.30
2019-06-01T13:12:25.826Z,1.70
2019-06-01T13:14:53.766Z,2.27
2019-06-01T13:17:21.891Z,2.07
2019-06-01T13:19:50.091Z,1.70
2019-06-01T13:22:19.133Z,1.70
2019-06-01T13:24:47.879Z,3.43
2019-06-01T13:27:16.006Z,2.23
2019-06-01T13:29:43.918Z,1.70
2019-06-01T13:32:11.987Z,1.90
2019-06-01T13:34:39.927Z,2.23
2019-06-01T13:37:07.823Z,2.07
2019-06-01T13:39:35.806Z,2.50
2019-06-01T13:42:03.774Z,2.23
2019-06-01T13:44:31.631Z,2.37
2019-06-01T13:46:59.935Z,1.87
2019-06-01T13:49:27.805Z,2.17
2019-06-01T13:51:55.887Z,1.60
2019-06-01T13:54:23.945Z,1.60
2019-06-01T13:56:52.897Z,1.80
2019-06-01T13:59:21.198Z,2.00
2019-06-01T14:01:49.073Z,1.77
2019-06-01T14:04:16.851Z,2.40
2019-06-01T14:06:45.147Z,3.40
2019-06-01T14:09:13.195Z,1.73
2019-06-01T14:11:41.138Z,1.90
2019-06-01T14:14:08.988Z,1.50
2019-06-01T14:16:36.999Z,2.23
2019-06-01T14:19:06.855Z,2.20
2019-06-01T14:21:34.675Z,1.80
2019-06-01T14:24:02.674Z,2.17
2019-06-01T14:26:30.571Z,2.27
2019-06-01T14:28:58.744Z,3.80
2019-06-01T14:31:26.740Z,2.10
2019-06-01T14:33:54.809Z,1.97
2019-06-01T14:36:23.074Z,2.10
2019-06-01T14:38:54.319Z,1.93
2019-06-01T14:41:20.828Z,1.90
2019-06-01T14:43:49.092Z,2.50
2019-06-01T14:46:17.029Z,2.37
2019-06-01T14:48:44.970Z,2.47
2019-06-01T14:51:12.815Z,2.33
2019-06-01T14:53:40.720Z,1.93
2019-06-01T14:56:08.776Z,2.13
2019-06-01T14:58:36.621Z,1.93
2019-06-01T15:01:04.513Z,2.20
2019-06-01T15:03:32.342Z,2.27
2019-06-01T15:06:00.251Z,2.00
2019-06-01T15:08:28.226Z,1.73
2019-06-01T15:10:57.107Z,2.50
2019-06-01T15:13:25.262Z,2.23
2019-06-01T15:15:53.447Z,2.43
2019-06-01T15:18:21.509Z,1.90
2019-06-01T15:20:49.686Z,2.13
2019-06-01T15:23:17.674Z,2.20
2019-06-01T15:25:45.608Z,2.20
2019-06-01T15:28:13.574Z,5.50
2019-06-01T15:30:42.068Z,2.20
2019-06-01T15:33:09.960Z,2.20
2019-06-01T15:35:37.911Z,1.80
2019-06-01T15:38:05.821Z,1.80
2019-06-01T15:40:33.755Z,1.50
2019-06-01T15:43:01.652Z,1.80
2019-06-01T15:45:29.714Z,1.93
2019-06-01T15:47:57.875Z,1.87
2019-06-01T15:50:25.926Z,1.67
2019-06-01T15:52:54.960Z,2.13
2019-06-01T15:55:23.203Z,1.90
2019-06-01T15:57:52.166Z,5.43
2019-06-01T16:00:20.481Z,2.03
2019-06-01T16:02:48.407Z,1.90
2019-06-01T16:05:16.292Z,1.70
2019-06-01T16:07:44.187Z,1.87
2019-06-01T16:10:12.835Z,1.83
2019-06-01T16:12:40.811Z,2.10
2019-06-01T16:15:09.201Z,2.10
2019-06-01T16:17:37.187Z,2.00
2019-06-01T16:20:06.032Z,2.37
2019-06-01T16:22:33.931Z,2.20
2019-06-01T16:25:02.589Z,2.17
2019-06-01T16:27:30.570Z,1.80
2019-06-01T16:30:00.184Z,2.03
2019-06-01T16:32:28.244Z,1.80
2019-06-01T16:34:56.866Z,1.47
2019-06-01T16:37:25.017Z,0.93
2019-06-01T16:40:02.033Z,1.67
2019-06-01T16:42:22.660Z,1.10
2019-06-01T16:44:50.676Z,1.17
2019-06-01T16:47:18.622Z,1.23
2019-06-01T16:49:46.569Z,1.40
2019-06-01T16:52:14.754Z,2.17
2019-06-01T16:54:42.927Z,2.47
2019-06-01T16:57:11.328Z,2.70
2019-06-01T16:59:39.514Z,1.73
2019-06-01T17:02:07.983Z,2.03
2019-06-01T17:04:35.959Z,2.27
2019-06-01T17:07:05.549Z,2.03
2019-06-01T17:09:33.906Z,2.60
2019-06-01T17:12:03.046Z,1.90
2019-06-01T17:14:31.403Z,1.57
2019-06-01T17:16:59.438Z,1.63
2019-06-01T17:19:27.424Z,2.57
2019-06-01T17:21:55.420Z,3.67
2019-06-01T17:24:23.337Z,1.53
2019-06-01T17:26:51.492Z,1.43
2019-06-01T17:29:19.457Z,1.50
2019-06-01T17:31:54.339Z,1.37
2019-06-01T17:34:18.662Z,2.07
2019-06-01T17:36:46.653Z,1.80
2019-06-01T17:39:14.654Z,1.53
2019-06-01T17:41:42.511Z,3.13
2019-06-01T17:44:10.489Z,2.40
2019-06-01T17:46:52.267Z,2.10
2019-06-01T17:49:08.473Z,1.30
2019-06-01T17:51:36.477Z,2.00
2019-06-01T17:54:05.395Z,1.50
2019-06-01T17:56:34.207Z,2.20
2019-06-01T17:59:03.284Z,5.50
2019-06-01T18:01:31.378Z,2.60
2019-06-01T18:03:59.239Z,1.97
2019-06-01T18:06:27.146Z,2.13
2019-06-01T18:08:55.061Z,1.50
2019-06-01T18:11:22.937Z,1.97
2019-06-01T18:13:50.848Z,2.03
2019-06-01T18:16:18.883Z,1.70
2019-06-01T18:18:46.742Z,2.50
2019-06-01T18:21:14.674Z,6.07
2019-06-01T18:23:42.594Z,12.63
2019-06-01T18:26:10.980Z,3.27
2019-06-01T18:28:39.373Z,2.07
2019-06-01T18:31:08.634Z,1.90
2019-06-01T18:33:36.718Z,2.70
2019-06-01T18:36:05.411Z,2.50
2019-06-01T18:38:33.479Z,2.10
2019-06-01T18:41:10.745Z,2.57
2019-06-01T18:43:31.065Z,2.47
2019-06-01T18:45:59.143Z,2.10
2019-06-01T18:48:27.018Z,2.17
2019-06-01T18:50:55.009Z,3.47
2019-06-01T18:53:23.828Z,1.80
2019-06-01T18:55:51.822Z,1.80
2019-06-01T18:58:19.887Z,1.70
2019-06-01T19:00:47.856Z,2.00
2019-06-01T19:03:15.715Z,2.23
2019-06-01T19:05:43.658Z,4.00
2019-06-01T19:08:11.683Z,2.33
2019-06-01T19:10:39.834Z,3.30
2019-06-01T19:13:07.712Z,2.20
2019-06-01T19:15:35.650Z,2.47
2019-06-01T19:18:03.545Z,2.07
2019-06-01T19:20:33.304Z,2.73
2019-06-01T19:23:01.282Z,3.47
2019-06-01T19:25:29.169Z,3.27
2019-06-01T19:27:57.057Z,3.37
2019-06-01T19:30:37.812Z,3.80
2019-06-01T19:33:06.811Z,3.60
2019-06-01T19:35:34.879Z,3.00
2019-06-01T19:38:02.885Z,3.27
2019-06-01T19:40:34.421Z,3.70
2019-06-01T19:43:02.340Z,3.20
2019-06-01T19:45:30.215Z,3.73
2019-06-01T19:47:58.198Z,3.80
2019-06-01T19:50:25.882Z,4.50
2019-06-01T19:52:53.532Z,2.73
2019-06-01T19:55:21.654Z,2.63
2019-06-01T19:57:49.549Z,3.30
2019-06-01T20:00:18.544Z,3.10
2019-06-01T20:02:46.497Z,3.10
2019-06-01T20:05:14.678Z,3.40
2019-06-01T20:07:42.899Z,3.03
2019-06-01T20:10:12.178Z,2.73
2019-06-01T20:12:40.018Z,2.80
2019-06-01T20:15:08.104Z,2.70
2019-06-01T20:17:36.110Z,2.87
2019-06-01T20:20:03.931Z,5.20
2019-06-01T20:22:31.942Z,7.67
2019-06-01T20:24:59.894Z,6.47
2019-06-01T20:27:27.572Z,4.63
2019-06-01T20:29:55.717Z,4.60
2019-06-01T20:32:23.888Z,19.03
2019-06-01T20:34:51.876Z,6.13
2019-06-01T20:37:20.173Z,4.57
2019-06-01T20:39:48.117Z,2.83
2019-06-01T20:42:22.183Z,4.13
2019-06-01T20:44:45.777Z,3.10
2019-06-01T20:47:14.771Z,3.67
2019-06-01T20:49:42.842Z,3.90
2019-06-01T20:52:11.012Z,2.70
2019-06-01T20:54:39.081Z,3.17
2019-06-01T20:57:06.951Z,3.40
2019-06-01T20:59:34.801Z,3.27
2019-06-01T21:02:05.972Z,4.57
2019-06-01T21:04:33.906Z,3.63
2019-06-01T21:07:01.867Z,4.60
2019-06-01T21:09:29.768Z,16.27
2019-06-01T21:11:57.595Z,5.10
2019-06-01T21:14:25.513Z,4.47
2019-06-01T21:16:53.667Z,4.27
2019-06-01T21:19:22.415Z,4.90
2019-06-01T21:21:50.452Z,5.20
2019-06-01T21:24:18.827Z,4.77
2019-06-01T21:26:46.870Z,4.20
2019-06-01T21:29:14.727Z,4.77
2019-06-01T21:31:42.627Z,4.60
2019-06-01T21:34:10.571Z,4.53
2019-06-01T21:36:41.667Z,6.27
2019-06-01T21:39:08.453Z,2.83
2019-06-01T21:41:36.303Z,3.10
2019-06-01T21:44:04.290Z,3.40
2019-06-01T21:46:32.178Z,3.10
2019-06-01T21:49:00.327Z,2.87
2019-06-01T21:51:28.285Z,2.20
2019-06-01T21:53:57.941Z,2.67
2019-06-01T21:56:26.676Z,2.00
2019-06-01T21:58:54.638Z,2.77
2019-06-01T22:01:22.741Z,7.57
2019-06-01T22:03:50.781Z,3.70
2019-06-01T22:06:19.099Z,2.30
2019-06-01T22:08:52.583Z,2.23
2019-06-01T22:11:17.309Z,2.73
2019-06-01T22:13:45.337Z,2.60
2019-06-01T22:16:13.525Z,2.60
2019-06-01T22:18:41.466Z,2.37
2019-06-01T22:21:09.337Z,2.20
2019-06-01T22:23:37.235Z,2.30
2019-06-01T22:26:05.162Z,2.20
2019-06-01T22:28:33.029Z,2.40
2019-06-01T22:31:00.960Z,1.97
2019-06-01T22:33:29.071Z,2.30
2019-06-01T22:35:56.971Z,2.20
2019-06-01T22:38:25.814Z,2.40
2019-06-01T22:40:53.907Z,2.37
2019-06-01T22:43:39.199Z,2.30
2019-06-01T22:45:53.331Z,2.97
2019-06-01T22:48:22.394Z,2.80
2019-06-01T22:50:50.741Z,2.50
2019-06-01T22:53:19.690Z,2.37
2019-06-01T22:55:47.852Z,2.40
2019-06-01T22:58:15.836Z,2.40
2019-06-01T23:00:43.829Z,3.07
2019-06-01T23:03:11.778Z,2.50
2019-06-01T23:05:39.639Z,2.80
2019-06-01T23:08:07.544Z,2.80
2019-06-01T23:10:35.691Z,2.37
2019-06-01T23:13:03.587Z,2.50
2019-06-01T23:15:31.983Z,2.70
2019-06-01T23:17:59.777Z,2.53
2019-06-01T23:20:27.965Z,2.40
2019-06-01T23:22:56.053Z,2.50
2019-06-01T23:25:24.498Z,2.90
2019-06-01T23:27:52.451Z,2.50
2019-06-01T23:30:20.369Z,2.30
2019-06-01T23:32:48.290Z,2.60
2019-06-01T23:35:16.268Z,2.20
2019-06-01T23:37:44.589Z,2.50
2019-06-01T23:40:12.511Z,2.77
2019-06-01T23:42:40.369Z,2.37
2019-06-01T23:45:08.492Z,2.97
2019-06-01T23:47:36.420Z,2.47
2019-06-01T23:50:04.695Z,2.43
2019-06-01T23:52:33.772Z,2.33
2019-06-01T23:55:01.978Z,2.40
2019-06-01T23:57:30.093Z,2.20
2019-06-01T23:59:58.245Z,2.77
